Time;durP1;ratioP1;P1;durP2;ratioP2;P2;SDS_P1;SDS_P2;PMS_P1;PMS_P2;Temp;Humidity;BMP_temperature;BMP_pressure;BME280_temperature;BME280_humidity;BME280_pressure;Samples;Min_cycle;Max_cycle;Signal;HPM_P1;HPM_P2
2022/07/11 00:00:08;;;;;;;;;;;;;;;15.79;53.83;98580.84;4995947;28;20325;-77
2022/07/11 00:02:36;;;;;;;;;;;;;;;15.75;54.11;98574.41;5008939;28;20014;-77
2022/07/11 00:05:04;;;;;;;;;;;;;;;15.74;54.19;98581.00;5002611;28;19932;-76
2022/07/11 00:07:32;;;;;;;;;;;;;;;15.69;54.22;98582.00;5000329;28;19926;-76
2022/07/11 00:10:01;;;;;;;;;;;;;;;15.67;54.36;98581.53;5003671;28;19980;-76
2022/07/11 00:12:30;;;;;;;;;;;;;;;15.65;54.67;98580.22;4992852;28;19925;-76
2022/07/11 00:14:58;;;;;;;;;;;;;;;15.62;54.78;98576.19;4991684;28;20005;-76
2022/07/11 00:17:26;;;;;;;;;;;;;;;15.60;55.37;98572.97;4989720;28;20066;-76
2022/07/11 00:19:54;;;;;;;;;;;;;;;15.68;55.31;98574.13;4988305;28;19926;-76
2022/07/11 00:22:22;;;;;;;;;;;;;;;15.70;54.95;98567.16;4990283;28;19948;-76
2022/07/11 00:24:50;;;;;;;;;;;;;;;15.66;55.19;98571.72;4986141;28;19961;-76
2022/07/11 00:27:23;;;;;;;;;;;;;;;15.65;55.52;98563.81;4990616;28;19942;-76
2022/07/11 00:29:52;;;;;;;;;;;;;;;15.72;55.26;98566.84;4988852;28;19933;-77
2022/07/11 00:32:20;;;;;;;;;;;;;;;15.81;54.88;98566.78;4990532;28;19964;-76
2022/07/11 00:34:48;;;;;;;;;;;;;;;15.70;55.13;98569.91;5011556;28;19941;-76
2022/07/11 00:37:41;;;;;;;;;;;;;;;15.75;55.34;98570.84;4989636;28;19930;-76
2022/07/11 00:40:10;;;;;;;;;;;;;;;15.57;55.99;98570.91;4992162;28;19932;-77
2022/07/11 00:42:38;;;;;;;;;;;;;;;15.58;56.22;98567.03;4985404;28;19926;-76
2022/07/11 00:45:07;;;;;;;;;;;;;;;15.61;56.55;98571.88;5005885;28;19937;-76
2022/07/11 00:47:36;;;;;;;;;;;;;;;15.62;56.62;98564.44;4989875;28;19974;-76
2022/07/11 00:50:04;;;;;;;;;;;;;;;15.53;56.83;98577.34;4985624;28;19933;-76
2022/07/11 00:52:32;;;;;;;;;;;;;;;15.47;57.12;98576.72;4997463;28;20003;-76
2022/07/11 00:54:59;;;;;;;;;;;;;;;15.46;57.23;98566.91;5000277;28;19926;-77
2022/07/11 00:57:27;;;;;;;;;;;;;;;15.46;57.34;98572.41;4989015;28;19985;-76
2022/07/11 00:59:55;;;;;;;;;;;;;;;15.39;57.29;98567.44;4993788;28;20005;-76
2022/07/11 01:02:25;;;;;;;;;;;;;;;15.39;57.57;98572.91;4988576;28;19933;-76
2022/07/11 01:04:53;;;;;;;;;;;;;;;15.39;57.75;98572.06;5003041;28;19925;-77
2022/07/11 01:07:21;;;;;;;;;;;;;;;15.39;57.78;98569.34;4988437;28;19926;-76
2022/07/11 01:09:50;;;;;;;;;;;;;;;15.40;57.91;98573.69;4994947;28;20033;-76
2022/07/11 01:12:18;;;;;;;;;;;;;;;15.41;57.79;98567.09;4985658;28;20400;-76
2022/07/11 01:14:51;;;;;;;;;;;;;;;15.35;58.15;98561.00;5003403;28;20163;-77
2022/07/11 01:17:19;;;;;;;;;;;;;;;15.33;58.56;98568.72;4976194;28;20339;-76
2022/07/11 01:19:49;;;;;;;;;;;;;;;15.34;58.51;98564.03;4991140;28;20012;-76
2022/07/11 01:22:17;;;;;;;;;;;;;;;15.37;58.51;98558.72;4974652;28;19933;-76
2022/07/11 01:24:47;;;;;;;;;;;;;;;15.35;58.57;98552.78;4974631;28;20097;-76
2022/07/11 01:27:15;;;;;;;;;;;;;;;15.26;58.97;98556.66;4990942;28;20395;-76
2022/07/11 01:29:43;;;;;;;;;;;;;;;15.29;58.97;98551.34;4995554;28;19926;-76
2022/07/11 01:32:11;;;;;;;;;;;;;;;15.33;58.94;98546.00;4991599;28;19968;-76
2022/07/11 01:34:39;;;;;;;;;;;;;;;15.33;58.95;98540.53;5006043;28;20316;-76
2022/07/11 01:37:32;;;;;;;;;;;;;;;15.27;59.16;98537.16;4975305;28;20372;-76
2022/07/11 01:40:01;;;;;;;;;;;;;;;15.24;59.21;98546.06;4988705;28;19961;-76
2022/07/11 01:42:29;;;;;;;;;;;;;;;15.26;59.28;98545.72;4990216;28;20364;-76
2022/07/11 01:44:57;;;;;;;;;;;;;;;15.36;58.92;98537.16;4983917;28;19948;-76
2022/07/11 01:47:26;;;;;;;;;;;;;;;15.44;58.68;98541.78;4985167;28;19926;-77
2022/07/11 01:49:54;;;;;;;;;;;;;;;15.35;59.15;98532.81;4988289;28;19925;-75
2022/07/11 01:52:22;;;;;;;;;;;;;;;15.35;59.03;98530.88;4992605;28;20325;-76
2022/07/11 01:54:51;;;;;;;;;;;;;;;15.38;59.23;98529.41;4976941;28;19974;-75
2022/07/11 01:57:20;;;;;;;;;;;;;;;15.13;59.95;98531.91;4990764;28;19989;-76
2022/07/11 01:59:48;;;;;;;;;;;;;;;15.22;59.83;98539.28;4972155;28;19972;-76
2022/07/11 02:05:08;;;;;;;;;;;;;;;15.31;59.67;98531.84;4999592;28;19972;-76
2022/07/11 02:10:18;;;;;;;;;;;;;;;15.41;59.38;98526.81;4985287;28;19948;-75
2022/07/11 02:12:47;;;;;;;;;;;;;;;15.46;59.24;98523.09;4989883;28;20367;-76
2022/07/11 02:15:17;;;;;;;;;;;;;;;15.46;59.29;98521.16;5004820;28;19933;-76
2022/07/11 02:17:45;;;;;;;;;;;;;;;15.46;59.51;98521.16;4989966;28;19993;-76
2022/07/11 02:20:14;;;;;;;;;;;;;;;15.46;59.32;98523.09;4987171;28;21242;-76
2022/07/11 02:22:44;;;;;;;;;;;;;;;15.45;59.46;98530.53;4988161;28;19953;-77
2022/07/11 02:25:13;;;;;;;;;;;;;;;15.38;59.87;98527.47;4989350;28;19933;-76
2022/07/11 02:27:41;;;;;;;;;;;;;;;15.36;59.92;98524.25;4988594;28;19987;-76
2022/07/11 02:30:10;;;;;;;;;;;;;;;15.34;60.03;98520.22;4990493;28;19929;-76
2022/07/11 02:32:39;;;;;;;;;;;;;;;15.35;59.90;98521.88;4988443;28;19936;-76
2022/07/11 02:35:07;;;;;;;;;;;;;;;15.35;60.16;98517.19;4982767;28;20435;-76
2022/07/11 02:37:35;;;;;;;;;;;;;;;15.35;60.31;98521.88;4987186;28;19965;-76
2022/07/11 02:40:04;;;;;;;;;;;;;;;15.26;60.71;98530.09;4988113;28;19926;-76
2022/07/11 02:42:33;;;;;;;;;;;;;;;15.28;60.59;98532.50;4968708;28;19926;-77
2022/07/11 02:45:00;;;;;;;;;;;;;;;15.27;60.41;98530.91;4988609;28;19926;-76
2022/07/11 02:47:30;;;;;;;;;;;;;;;15.25;60.70;98535.91;4985656;28;19930;-76
2022/07/11 02:49:58;;;;;;;;;;;;;;;15.23;60.67;98530.72;4971537;28;20049;-76
2022/07/11 02:52:26;;;;;;;;;;;;;;;15.20;60.59;98526.72;4985286;28;19926;-76
2022/07/11 02:54:54;;;;;;;;;;;;;;;15.23;60.37;98528.00;4999397;28;19933;-77
2022/07/11 02:57:22;;;;;;;;;;;;;;;15.15;61.12;98532.38;4989442;28;19957;-77
2022/07/11 02:59:50;;;;;;;;;;;;;;;15.14;60.91;98527.25;4983189;28;19974;-76
2022/07/11 03:02:18;;;;;;;;;;;;;;;15.14;60.80;98528.03;4990919;28;19936;-76
2022/07/11 03:04:47;;;;;;;;;;;;;;;15.13;60.63;98533.84;4986144;28;19977;-76
2022/07/11 03:07:16;;;;;;;;;;;;;;;15.07;60.60;98533.19;4988858;28;20296;-76
2022/07/11 03:09:44;;;;;;;;;;;;;;;15.05;60.42;98524.50;4989308;28;19930;-78
2022/07/11 03:12:12;;;;;;;;;;;;;;;15.10;60.21;98529.81;4986391;28;20310;-76
2022/07/11 03:14:40;;;;;;;;;;;;;;;15.10;60.30;98529.00;4991603;28;19930;-78
2022/07/11 03:17:08;;;;;;;;;;;;;;;15.10;60.22;98526.28;5005618;28;19926;-78
2022/07/11 03:19:36;;;;;;;;;;;;;;;15.11;60.25;98528.69;4987426;28;19934;-77
2022/07/11 03:22:06;;;;;;;;;;;;;;;15.10;60.32;98527.06;4994067;28;19981;-76
2022/07/11 03:24:34;;;;;;;;;;;;;;;15.08;60.49;98529.34;4994057;28;19976;-76
2022/07/11 03:27:02;;;;;;;;;;;;;;;15.06;60.79;98536.25;4995263;28;20281;-77
2022/07/11 03:29:35;;;;;;;;;;;;;;;15.02;60.86;98535.28;4992752;28;20408;-76
2022/07/11 03:32:03;;;;;;;;;;;;;;;14.98;61.21;98534.34;4992064;28;20296;-76
2022/07/11 03:34:31;;;;;;;;;;;;;;;15.01;61.97;98533.69;4985880;28;20337;-76
2022/07/11 03:39:54;;;;;;;;;;;;;;;14.94;63.51;98539.66;4994021;28;20067;-76
2022/07/11 03:42:22;;;;;;;;;;;;;;;14.91;63.55;98540.31;4993018;28;20662;-76
2022/07/11 03:44:51;;;;;;;;;;;;;;;14.90;63.36;98530.50;4977928;28;20021;-77
2022/07/11 03:47:22;;;;;;;;;;;;;;;14.85;63.33;98541.59;5007166;28;20395;-76
2022/07/11 03:49:50;;;;;;;;;;;;;;;14.89;62.98;98548.84;4995137;28;19981;-76
2022/07/11 03:52:18;;;;;;;;;;;;;;;14.83;62.66;98533.72;4997862;28;19926;-77
2022/07/11 03:54:46;;;;;;;;;;;;;;;14.81;62.74;98540.66;4991290;28;20016;-77
2022/07/11 03:57:15;;;;;;;;;;;;;;;14.81;62.80;98540.66;4990045;28;19926;-76
2022/07/11 03:59:43;;;;;;;;;;;;;;;14.81;62.91;98541.47;4991057;28;19926;-77
2022/07/11 04:02:11;;;;;;;;;;;;;;;14.81;63.30;98538.72;4992572;28;19933;-77
2022/07/11 04:04:39;;;;;;;;;;;;;;;14.91;62.88;98543.88;5005048;28;19937;-77
2022/07/11 04:07:07;;;;;;;;;;;;;;;14.91;63.14;98545.78;5015173;28;19925;-77
2022/07/11 04:09:36;;;;;;;;;;;;;;;14.91;63.37;98543.88;4995049;28;19973;-77
2022/07/11 04:12:04;;;;;;;;;;;;;;;14.98;63.19;98540.63;4989005;28;20017;-76
2022/07/11 04:14:53;;;;;;;;;;;;;;;15.02;62.88;98540.75;4991398;28;19955;-76
2022/07/11 04:17:27;;;;;;;;;;;;;;;14.96;63.69;98542.88;4967125;28;19977;-77
2022/07/11 04:19:56;;;;;;;;;;;;;;;14.95;63.53;98541.25;4980897;28;19925;-76
2022/07/11 04:22:24;;;;;;;;;;;;;;;14.88;63.16;98546.44;4987167;28;20032;-76
2022/07/11 04:24:52;;;;;;;;;;;;;;;14.82;63.72;98536.78;5014116;28;20264;-77
2022/07/11 04:27:20;;;;;;;;;;;;;;;14.80;64.28;98541.75;4975020;28;19969;-74
2022/07/11 04:29:49;;;;;;;;;;;;;;;14.74;64.14;98548.53;4971476;28;20376;-76
2022/07/11 04:32:19;;;;;;;;;;;;;;;14.73;64.41;98538.72;4989150;28;19926;-73
2022/07/11 04:34:48;;;;;;;;;;;;;;;14.64;65.34;98549.66;4991057;28;20020;-74
2022/07/11 04:37:41;;;;;;;;;;;;;;;14.62;65.87;98544.53;4994306;28;19926;-74
2022/07/11 04:40:09;;;;;;;;;;;;;;;14.46;66.43;98545.28;4987927;28;20325;-74
2022/07/11 04:42:40;;;;;;;;;;;;;;;14.47;66.54;98534.06;4984539;28;20013;-74
2022/07/11 04:45:08;;;;;;;;;;;;;;;14.67;65.75;98541.63;4989137;28;20036;-74
2022/07/11 04:47:37;;;;;;;;;;;;;;;14.66;65.46;98537.28;4985672;28;20369;-74
2022/07/11 04:50:06;;;;;;;;;;;;;;;14.73;65.53;98534.06;4990063;28;19925;-74
2022/07/11 04:52:34;;;;;;;;;;;;;;;14.94;65.19;98545.94;4967340;28;19933;-75
2022/07/11 04:55:01;;;;;;;;;;;;;;;14.57;66.93;98544.69;4988848;28;20392;-75
2022/07/11 04:57:30;;;;;;;;;;;;;;;14.65;66.71;98543.09;4985220;28;19934;-75
2022/07/11 04:59:58;;;;;;;;;;;;;;;14.82;66.25;98532.13;4988597;28;19926;-74
2022/07/11 05:02:25;;;;;;;;;;;;;;;14.97;65.76;98541.75;4994245;28;19986;-74
2022/07/11 05:04:55;;;;;;;;;;;;;;;15.14;64.98;98555.41;4990096;28;20006;-73
2022/07/11 05:07:23;;;;;;;;;;;;;;;15.09;65.28;98547.38;4989812;28;19940;-77
2022/07/11 05:09:51;;;;;;;;;;;;;;;15.26;64.68;98553.94;4991119;28;19932;-77
2022/07/11 05:12:20;;;;;;;;;;;;;;;15.26;64.42;98545.72;4993185;28;19933;-79
2022/07/11 05:14:49;;;;;;;;;;;;;;;15.29;64.62;98550.56;4991915;28;19937;-80
2022/07/11 05:17:16;;;;;;;;;;;;;;;15.12;65.68;98545.91;4989560;28;19961;-85
2022/07/11 05:19:44;;;;;;;;;;;;;;;15.35;64.33;98557.44;4987541;28;19937;-83
2022/07/11 05:22:14;;;;;;;;;;;;;;;15.39;64.08;98552.91;4967666;28;20027;-80
2022/07/11 05:24:42;;;;;;;;;;;;;;;15.37;64.08;98566.13;4986735;28;20072;-81
2022/07/11 05:27:10;;;;;;;;;;;;;;;15.11;64.83;98564.25;4999453;28;19982;-83
2022/07/11 05:29:38;;;;;;;;;;;;;;;14.87;66.04;98569.47;4984958;28;19953;-79
2022/07/11 05:32:06;;;;;;;;;;;;;;;15.11;65.07;98569.72;4988125;28;20020;-82
2022/07/11 05:34:34;;;;;;;;;;;;;;;15.22;64.91;98577.59;4970822;28;19941;-80
2022/07/11 05:39:55;;;;;;;;;;;;;;;15.41;63.92;98580.78;4984167;28;20020;-78
2022/07/11 05:42:28;;;;;;;;;;;;;;;15.37;64.45;98579.81;4983921;28;20237;-78
2022/07/11 05:44:56;;;;;;;;;;;;;;;15.35;64.35;98579.34;4987083;28;19926;-78
2022/07/11 05:47:24;;;;;;;;;;;;;;;15.28;64.42;98579.84;4983430;28;19979;-78
2022/07/11 05:49:52;;;;;;;;;;;;;;;15.16;64.75;98583.25;4988372;28;19925;-78
2022/07/11 05:52:20;;;;;;;;;;;;;;;15.16;64.91;98580.50;4990363;28;19988;-78
2022/07/11 05:54:48;;;;;;;;;;;;;;;15.13;65.08;98578.44;4994694;28;19973;-78
2022/07/11 05:57:18;;;;;;;;;;;;;;;15.15;65.32;98581.63;4997918;28;20387;-78
2022/07/11 05:59:48;;;;;;;;;;;;;;;15.13;65.57;98583.91;4985857;28;19981;-78
2022/07/11 06:02:16;;;;;;;;;;;;;;;15.18;65.60;98582.94;4977904;28;19936;-78
2022/07/11 06:04:44;;;;;;;;;;;;;;;15.15;65.70;98586.31;4980315;28;19941;-80
2022/07/11 06:08:40;;;;;;;;;;;;;;;15.22;65.73;98583.88;4985876;28;20118;-80
2022/07/11 06:09:59;;;;;;;;;;;;;;;15.16;66.01;98583.25;4984014;28;19926;-78
2022/07/11 06:12:28;;;;;;;;;;;;;;;15.19;66.00;98574.41;4985317;28;19926;-79
2022/07/11 06:14:57;;;;;;;;;;;;;;;15.16;66.22;98576.97;4985706;28;19925;-78
2022/07/11 06:17:25;;;;;;;;;;;;;;;15.21;65.81;98576.78;4986089;28;20039;-79
2022/07/11 06:20:18;;;;;;;;;;;;;;;15.27;65.81;98575.50;4990744;28;20028;-79
2022/07/11 06:22:47;;;;;;;;;;;;;;;15.29;65.88;98573.25;4985204;28;19926;-78
2022/07/11 06:25:16;;;;;;;;;;;;;;;15.35;65.98;98573.88;4988502;28;20209;-79
2022/07/11 06:27:46;;;;;;;;;;;;;;;15.58;65.35;98563.50;5007825;28;19933;-77
2022/07/11 06:30:19;;;;;;;;;;;;;;;15.56;65.07;98572.03;4987170;28;19926;-78
2022/07/11 06:32:47;;;;;;;;;;;;;;;15.52;65.28;98571.06;4989649;28;19980;-76
2022/07/11 06:35:15;;;;;;;;;;;;;;;15.53;65.47;98572.69;4974452;28;19926;-78
2022/07/11 06:37:43;;;;;;;;;;;;;;;15.64;65.06;98571.22;4991301;28;20404;-78
2022/07/11 06:40:12;;;;;;;;;;;;;;;15.73;64.79;98571.19;4992571;28;19929;-78
2022/07/11 06:42:41;;;;;;;;;;;;;;;15.79;64.47;98575.34;4993048;28;20017;-79
2022/07/11 06:45:11;;;;;;;;;;;;;;;15.74;64.39;98574.72;5009436;28;20030;-78
2022/07/11 06:47:39;;;;;;;;;;;;;;;15.75;64.51;98571.66;4993672;28;19974;-78
2022/07/11 06:50:07;;;;;;;;;;;;;;;15.78;64.66;98578.44;4986754;28;19926;-78
2022/07/11 06:52:35;;;;;;;;;;;;;;;15.81;64.26;98577.75;4987779;28;19957;-78
2022/07/11 06:55:03;;;;;;;;;;;;;;;15.87;64.57;98579.16;4991048;28;20340;-78
2022/07/11 06:57:31;;;;;;;;;;;;;;;15.88;64.32;98573.38;4988503;28;20029;-78
2022/07/11 06:59:59;;;;;;;;;;;;;;;15.78;64.76;98576.50;4988366;28;19926;-78
2022/07/11 07:02:30;;;;;;;;;;;;;;;15.82;64.65;98579.34;5007061;28;19972;-78
2022/07/11 07:04:58;;;;;;;;;;;;;;;15.79;64.98;98580.84;4989110;28;19941;-78
2022/07/11 07:07:27;;;;;;;;;;;;;;;15.90;64.74;98586.75;4971795;28;20380;-77
2022/07/11 07:09:55;;;;;;;;;;;;;;;16.00;64.46;98580.91;4971199;28;20411;-79
2022/07/11 07:12:24;;;;;;;;;;;;;;;16.04;64.05;98581.84;5004604;28;20218;-79
2022/07/11 07:14:52;;;;;;;;;;;;;;;16.05;63.72;98583.44;4989201;28;20020;-76
2022/07/11 07:17:20;;;;;;;;;;;;;;;16.16;63.49;98584.69;4990013;28;20304;-75
2022/07/11 07:19:49;;;;;;;;;;;;;;;16.11;63.44;98581.31;4990534;28;19938;-75
2022/07/11 07:22:42;;;;;;;;;;;;;;;16.30;63.36;98583.59;4985421;28;20021;-74
2022/07/11 07:25:10;;;;;;;;;;;;;;;16.20;63.28;98590.31;4977311;28;20047;-74
2022/07/11 07:27:38;;;;;;;;;;;;;;;16.27;62.66;98589.78;4993005;28;19992;-76
2022/07/11 07:30:06;;;;;;;;;;;;;;;16.35;62.99;98591.66;4984641;28;20392;-75
2022/07/11 07:32:36;;;;;;;;;;;;;;;16.39;62.66;98598.88;4972125;28;19929;-77
2022/07/11 07:35:06;;;;;;;;;;;;;;;16.26;63.24;98588.97;4990737;28;20290;-77
2022/07/11 07:37:34;;;;;;;;;;;;;;;16.19;63.14;98594.16;4985839;28;20041;-77
2022/07/11 07:40:02;;;;;;;;;;;;;;;16.22;62.86;98588.81;4986684;28;19926;-78
2022/07/11 07:42:30;;;;;;;;;;;;;;;16.18;63.09;98593.34;4984268;28;20021;-76
2022/07/11 07:44:58;;;;;;;;;;;;;;;16.27;62.98;98589.78;4984184;28;19980;-77
2022/07/11 07:47:27;;;;;;;;;;;;;;;16.22;62.85;98583.34;4971200;28;19980;-80
2022/07/11 07:49:55;;;;;;;;;;;;;;;16.31;62.74;98590.72;4965130;28;19926;-77
2022/07/11 07:52:25;;;;;;;;;;;;;;;16.35;62.86;98587.00;4985950;28;19933;-77
2022/07/11 07:54:53;;;;;;;;;;;;;;;16.42;62.46;98589.19;4987541;28;19926;-79
2022/07/11 07:57:21;;;;;;;;;;;;;;;16.34;63.09;98587.31;4986432;28;19945;-79
2022/07/11 07:59:49;;;;;;;;;;;;;;;16.06;63.51;98585.06;4989013;28;19944;-79
2022/07/11 08:02:16;;;;;;;;;;;;;;;16.29;62.75;98577.31;4988505;28;20028;-78
2022/07/11 08:04:44;;;;;;;;;;;;;;;16.10;63.32;98574.25;4984750;28;20026;-79
2022/07/11 08:07:12;;;;;;;;;;;;;;;16.18;63.20;98585.13;4988903;28;20118;-78
2022/07/11 08:09:41;;;;;;;;;;;;;;;16.21;63.38;98580.94;4992608;28;19926;-79
2022/07/11 08:12:09;;;;;;;;;;;;;;;16.36;62.97;98582.31;4993166;28;19972;-76
2022/07/11 08:14:37;;;;;;;;;;;;;;;16.32;63.17;98587.63;4992338;28;19980;-76
2022/07/11 08:17:05;;;;;;;;;;;;;;;16.40;63.07;98578.53;4991129;28;19957;-76
2022/07/11 08:19:33;;;;;;;;;;;;;;;16.41;62.62;98574.69;4990521;28;19933;-76
2022/07/11 08:22:01;;;;;;;;;;;;;;;16.43;62.74;98577.09;4988722;28;20009;-76
2022/07/11 08:24:29;;;;;;;;;;;;;;;16.46;62.45;98590.16;4989363;28;20330;-77
2022/07/11 08:26:58;;;;;;;;;;;;;;;16.46;62.96;98584.66;4990010;28;19926;-76
2022/07/11 08:29:46;;;;;;;;;;;;;;;16.26;63.37;98588.19;5002454;28;19938;-76
2022/07/11 08:32:14;;;;;;;;;;;;;;;16.34;63.30;98584.56;4988512;28;19984;-76
2022/07/11 08:34:42;;;;;;;;;;;;;;;16.38;63.46;98580.81;4988842;28;20213;-77
2022/07/11 08:40:03;;;;;;;;;;;;;;;16.34;63.30;98590.03;4989945;28;19961;-76
2022/07/11 08:42:32;;;;;;;;;;;;;;;16.36;63.20;98594.06;4990374;28;19956;-76
2022/07/11 08:45:00;;;;;;;;;;;;;;;16.37;62.88;98592.94;4989823;28;19925;-76
2022/07/11 08:47:30;;;;;;;;;;;;;;;16.47;62.81;98595.28;4991292;28;20392;-77
2022/07/11 08:49:57;;;;;;;;;;;;;;;16.36;62.90;98598.75;4991194;28;20387;-77
2022/07/11 08:52:26;;;;;;;;;;;;;;;16.36;63.16;98598.75;4990409;28;20384;-76
2022/07/11 08:54:54;;;;;;;;;;;;;;;16.31;63.42;98598.94;4990921;28;20384;-78
2022/07/11 08:57:22;;;;;;;;;;;;;;;16.32;63.80;98597.81;4974226;28;19926;-76
2022/07/11 08:59:52;;;;;;;;;;;;;;;16.33;64.48;98588.44;4990640;28;19930;-78
2022/07/11 09:02:20;;;;;;;;;;;;;;;16.40;64.91;98591.44;4989290;28;19932;-76
2022/07/11 09:04:48;;;;;;;;;;;;;;;16.33;64.22;98593.94;4988981;28;19969;-77
2022/07/11 09:07:16;;;;;;;;;;;;;;;16.28;64.82;98602.34;4990445;28;20327;-76
2022/07/11 09:09:44;;;;;;;;;;;;;;;16.22;65.81;98593.50;4991010;28;19988;-76
2022/07/11 09:12:13;;;;;;;;;;;;;;;16.10;66.74;98596.16;4991292;28;20361;-76
2022/07/11 09:14:40;;;;;;;;;;;;;;;16.09;67.01;98600.03;4986137;28;19972;-76
2022/07/11 09:17:10;;;;;;;;;;;;;;;16.08;66.78;98604.69;4988152;28;19925;-76
2022/07/11 09:19:39;;;;;;;;;;;;;;;16.09;68.05;98598.09;4990280;28;19926;-76
2022/07/11 09:27:44;;;;;;;;;;;;;;;15.99;70.68;98603.97;4988265;28;20052;-75
2022/07/11 09:30:16;;;;;;;;;;;;;;;15.77;71.36;98604.22;4985891;28;20122;-75
2022/07/11 09:32:54;;;;;;;;;;;;;;;15.61;73.01;98604.72;4990408;28;19945;-77
2022/07/11 09:35:46;;;;;;;;;;;;;;;15.69;71.87;98603.09;4988606;28;19926;-79
2022/07/11 09:38:16;;;;;;;;;;;;;;;15.61;73.01;98606.66;4987345;28;20382;-78
2022/07/11 09:40:45;;;;;;;;;;;;;;;15.67;73.45;98600.69;4988307;28;19987;-79
2022/07/11 09:43:13;;;;;;;;;;;;;;;15.38;74.88;98606.06;4972561;28;19953;-79
2022/07/11 09:45:42;;;;;;;;;;;;;;;15.40;74.62;98606.56;5002710;28;20486;-79
2022/07/11 09:48:12;;;;;;;;;;;;;;;15.62;74.55;98609.06;4988970;28;20028;-79
2022/07/11 09:50:40;;;;;;;;;;;;;;;15.78;73.13;98611.31;4988363;28;19961;-77
2022/07/11 09:53:09;;;;;;;;;;;;;;;16.02;72.50;98606.03;4987908;28;19926;-78
2022/07/11 09:55:37;;;;;;;;;;;;;;;16.21;71.95;98605.63;4988467;28;19976;-77
2022/07/11 09:58:22;;;;;;;;;;;;;;;16.28;70.59;98608.63;4979987;28;20008;-77
2022/07/11 10:00:52;;;;;;;;;;;;;;;16.26;72.57;98602.69;4990049;28;19934;-77
2022/07/11 10:03:22;;;;;;;;;;;;;;;16.61;70.59;98608.72;5004225;28;19960;-77
2022/07/11 10:06:14;;;;;;;;;;;;;;;16.78;69.63;98610.59;5004598;28;19957;-77
2022/07/11 10:08:43;;;;;;;;;;;;;;;16.34;70.67;98609.25;4983207;28;19950;-77
2022/07/11 10:11:11;;;;;;;;;;;;;;;16.61;69.78;98608.72;4987291;28;19926;-74
2022/07/11 10:13:39;;;;;;;;;;;;;;;16.84;68.53;98612.00;4985280;28;20269;-76
2022/07/11 10:16:09;;;;;;;;;;;;;;;16.86;68.05;98612.44;4986094;28;19926;-75
2022/07/11 10:18:40;;;;;;;;;;;;;;;17.03;66.62;98611.50;4988604;28;20346;-76
2022/07/11 10:21:34;;;;;;;;;;;;;;;17.09;65.74;98607.41;4986352;28;20012;-76
2022/07/11 10:24:04;;;;;;;;;;;;;;;17.11;65.69;98618.88;4987618;28;20012;-77
2022/07/11 10:26:34;;;;;;;;;;;;;;;16.79;66.54;98617.69;4987986;28;20003;-76
2022/07/11 10:29:02;;;;;;;;;;;;;;;16.81;68.10;98620.88;4988886;28;19925;-76
2022/07/11 10:31:30;;;;;;;;;;;;;;;16.72;68.35;98626.44;4985371;28;19980;-76
2022/07/11 10:34:27;;;;;;;;;;;;;;;16.50;68.58;98623.97;4970710;28;19926;-78
2022/07/11 10:37:21;;;;;;;;;;;;;;;16.37;68.56;98627.78;5006988;28;19929;-79
2022/07/11 10:39:57;;;;;;;;;;;;;;;16.40;69.35;98627.09;4987793;28;19933;-79
2022/07/11 10:42:38;;;;;;;;;;;;;;;16.48;68.67;98627.06;4989701;28;20031;-79
2022/07/11 10:45:07;;;;;;;;;;;;;;;16.32;69.77;98641.69;4990917;28;19941;-79
2022/07/11 10:47:36;;;;;;;;;;;;;;;16.24;70.73;98633.19;4990491;28;20017;-79
2022/07/11 10:50:09;;;;;;;;;;;;;;;16.13;70.57;98633.88;4991046;28;20001;-79
2022/07/11 10:52:37;;;;;;;;;;;;;;;16.06;70.50;98642.59;5006764;28;19930;-77
2022/07/11 10:55:08;;;;;;;;;;;;;;;16.18;69.82;98641.91;4989651;28;20340;-76
2022/07/11 10:57:40;;;;;;;;;;;;;;;16.16;69.75;98650.47;5002579;28;19933;-76
2022/07/11 11:00:14;;;;;;;;;;;;;;;16.16;69.63;98644.97;4979200;28;20036;-77
2022/07/11 11:03:02;;;;;;;;;;;;;;;16.02;70.43;98638.91;4989911;28;20157;-77
2022/07/11 11:05:44;;;;;;;;;;;;;;;16.19;69.79;98641.59;4987164;28;19929;-77
2022/07/11 11:08:34;;;;;;;;;;;;;;;16.15;69.64;98637.91;4988017;28;20020;-77
2022/07/11 11:11:07;;;;;;;;;;;;;;;16.19;69.44;98638.84;5003147;28;19926;-76
2022/07/11 11:13:36;;;;;;;;;;;;;;;16.14;71.07;98636.28;4988547;28;19926;-76
2022/07/11 11:16:19;;;;;;;;;;;;;;;16.18;70.56;98628.19;4990279;28;20328;-77
2022/07/11 11:19:27;;;;;;;;;;;;;;;16.27;69.88;98630.91;5002592;28;19986;-77
2022/07/11 11:22:02;;;;;;;;;;;;;;;16.46;71.18;98634.81;5002668;28;19930;-77
2022/07/11 11:24:30;;;;;;;;;;;;;;;16.81;69.03;98631.84;4987518;28;19964;-76
2022/07/11 11:26:58;;;;;;;;;;;;;;;16.76;67.60;98623.81;5000649;28;20376;-76
2022/07/11 11:29:27;;;;;;;;;;;;;;;16.89;66.41;98624.72;4985270;28;20348;-76
2022/07/11 11:31:56;;;;;;;;;;;;;;;17.08;66.19;98627.75;4998522;28;19934;-77
2022/07/11 11:34:24;;;;;;;;;;;;;;;16.85;67.35;98624.56;4986437;28;19934;-80
2022/07/11 11:40:10;;;;;;;;;;;;;;;16.97;67.03;98632.06;4987223;28;19937;-78
2022/07/11 11:43:02;;;;;;;;;;;;;;;16.97;66.89;98632.06;5001028;28;20345;-76
2022/07/11 11:45:30;;;;;;;;;;;;;;;16.97;66.70;98623.81;5005525;28;19926;-75
2022/07/11 11:47:58;;;;;;;;;;;;;;;16.95;66.32;98628.84;4983379;28;19988;-75
2022/07/11 11:50:25;;;;;;;;;;;;;;;17.00;65.98;98612.19;5001533;28;19992;-76
2022/07/11 11:52:53;;;;;;;;;;;;;;;17.17;65.92;98622.19;4990377;28;20004;-76
2022/07/11 11:55:23;;;;;;;;;;;;;;;17.26;66.04;98618.25;4991417;28;19926;-76
2022/07/11 11:57:51;;;;;;;;;;;;;;;16.99;65.47;98619.63;5005526;28;20012;-75
2022/07/11 12:00:26;;;;;;;;;;;;;;;17.21;65.92;98623.13;4991475;28;19926;-76
2022/07/11 12:03:14;;;;;;;;;;;;;;;17.34;65.03;98621.22;4991855;28;19949;-76
2022/07/11 12:05:53;;;;;;;;;;;;;;;17.25;64.87;98624.03;4990735;28;19925;-76
2022/07/11 12:08:25;;;;;;;;;;;;;;;16.91;64.87;98619.69;4990562;28;19952;-76
2022/07/11 12:10:56;;;;;;;;;;;;;;;17.02;65.15;98612.63;4989551;28;19960;-77
2022/07/11 12:13:24;;;;;;;;;;;;;;;17.21;65.13;98612.97;5003775;28;19925;-77
2022/07/11 12:18:37;;;;;;;;;;;;;;;17.36;63.69;98618.94;4984813;28;19950;-76
2022/07/11 12:21:14;;;;;;;;;;;;;;;17.49;63.00;98617.84;4962549;28;20312;-76
2022/07/11 12:23:42;;;;;;;;;;;;;;;17.89;61.86;98620.00;4989689;28;20240;-75
2022/07/11 12:26:12;;;;;;;;;;;;;;;17.73;62.15;98623.41;4990730;28;20312;-76
2022/07/11 12:28:54;;;;;;;;;;;;;;;17.80;62.58;98617.38;4983485;28;19961;-76
2022/07/11 12:31:22;;;;;;;;;;;;;;;17.95;61.81;98619.44;4973443;28;20126;-76
2022/07/11 12:33:53;;;;;;;;;;;;;;;17.89;62.12;98611.75;4977782;28;19953;-75
2022/07/11 12:36:32;;;;;;;;;;;;;;;18.01;61.92;98611.78;4987075;28;19984;-76
2022/07/11 12:39:26;;;;;;;;;;;;;;;18.13;61.33;98602.72;4984219;28;19926;-76
2022/07/11 12:41:57;;;;;;;;;;;;;;;18.23;59.96;98605.00;4985129;28;20020;-77
2022/07/11 12:47:11;;;;;;;;;;;;;;;18.24;59.17;98603.84;4985750;28;19934;-75
2022/07/11 12:49:44;;;;;;;;;;;;;;;18.32;57.90;98601.00;4983377;28;20075;-76
2022/07/11 12:52:12;;;;;;;;;;;;;;;18.20;58.67;98603.72;4990875;28;19934;-76
2022/07/11 12:54:40;;;;;;;;;;;;;;;18.28;59.05;98596.53;5002968;28;19992;-76
2022/07/11 12:57:10;;;;;;;;;;;;;;;18.29;58.66;98601.66;4990467;28;19941;-76
2022/07/11 12:59:40;;;;;;;;;;;;;;;18.29;58.74;98595.38;4988028;28;20429;-76
2022/07/11 13:02:10;;;;;;;;;;;;;;;18.31;58.53;98593.88;4991561;28;19925;-77
2022/07/11 13:04:39;;;;;;;;;;;;;;;18.35;58.73;98590.44;4990919;28;19926;-76
2022/07/11 13:10:05;;;;;;;;;;;;;;;18.64;57.46;98590.13;4980595;28;19930;-76
2022/07/11 13:12:35;;;;;;;;;;;;;;;18.65;58.21;98593.72;4970032;28;19926;-76
2022/07/11 13:15:10;;;;;;;;;;;;;;;18.79;57.48;98589.44;4967650;28;20108;-76
2022/07/11 13:17:39;;;;;;;;;;;;;;;19.16;56.14;98580.25;4968063;28;20045;-76
2022/07/11 13:20:08;;;;;;;;;;;;;;;19.16;56.11;98589.31;4969846;28;19926;-76
2022/07/11 13:22:38;;;;;;;;;;;;;;;19.01;56.09;98581.78;4967589;28;19946;-76
2022/07/11 13:25:06;;;;;;;;;;;;;;;18.96;56.21;98576.53;4967082;28;19989;-77
2022/07/11 13:27:35;;;;;;;;;;;;;;;18.91;56.45;98574.03;4958387;28;19926;-76
2022/07/11 13:30:10;;;;;;;;;;;;;;;18.94;57.43;98574.13;4961483;28;20361;-76
2022/07/11 13:32:38;;;;;;;;;;;;;;;18.94;56.39;98576.09;4967902;28;20337;-76
2022/07/11 13:35:06;;;;;;;;;;;;;;;19.08;56.69;98576.50;4969467;28;19992;-76